Time;durP1;ratioP1;P1;durP2;ratioP2;P2;SDS_P1;SDS_P2;PMS_P1;PMS_P2;Temp;Humidity;BMP_temperature;BMP_pressure;BME280_temperature;BME280_humidity;BME280_pressure;Samples;Min_cycle;Max_cycle;Signal;HPM_P1;HPM_P2
2022/11/27 00:02:04;;;;;;;27.13;5.07;;;6.70;99.90;;;;;;5129415;27;20496;-81
2022/11/27 00:04:30;;;;;;;28.48;5.97;;;6.70;99.90;;;;;;5112810;27;20481;-81
2022/11/27 00:06:55;;;;;;;18.48;5.03;;;6.70;99.90;;;;;;5111681;27;20442;-81
2022/11/27 00:09:21;;;;;;;27.15;4.90;;;7.60;99.90;;;;;;5148157;27;20544;-80
2022/11/27 00:11:47;;;;;;;28.92;5.32;;;7.70;99.90;;;;;;5128602;27;20398;-81
2022/11/27 00:14:15;;;;;;;28.20;5.07;;;7.20;99.90;;;;;;5129921;27;20038;-81
2022/11/27 00:16:41;;;;;;;26.02;5.22;;;6.60;99.90;;;;;;5129112;27;20042;-81
2022/11/27 00:19:07;;;;;;;15.75;4.75;;;7.40;99.90;;;;;;5128691;27;20047;-80
2022/11/27 00:21:34;;;;;;;24.77;4.78;;;6.60;99.90;;;;;;5128806;27;20049;-80
2022/11/27 00:24:02;;;;;;;21.27;4.68;;;6.90;99.90;;;;;;5147108;27;20110;-80
2022/11/27 00:26:29;;;;;;;17.02;5.40;;;7.20;99.90;;;;;;5128821;27;20050;-80
2022/11/27 00:28:55;;;;;;;15.50;5.15;;;6.70;99.90;;;;;;5128190;27;20030;-81
2022/11/27 00:31:29;;;;;;;21.33;4.80;;;6.50;99.90;;;;;;5147743;27;20039;-80
2022/11/27 00:33:57;;;;;;;17.45;4.60;;;7.50;99.90;;;;;;5147241;27;20079;-81
2022/11/27 00:36:23;;;;;;;22.48;5.65;;;6.50;99.90;;;;;;5147002;27;20355;-81
2022/11/27 00:38:49;;;;;;;20.60;5.13;;;6.40;99.90;;;;;;5128163;27;20133;-81
2022/11/27 00:41:18;;;;;;;25.90;5.35;;;6.40;99.90;;;;;;5127681;27;20405;-80
2022/11/27 00:43:44;;;;;;;15.63;4.60;;;6.40;99.90;;;;;;5128550;27;20047;-79
2022/11/27 00:46:14;;;;;;;18.98;5.40;;;6.90;99.90;;;;;;5146822;27;20434;-79
2022/11/27 00:48:41;;;;;;;20.33;5.20;;;6.40;99.90;;;;;;5129182;27;20524;-79
2022/11/27 00:51:10;;;;;;;24.70;5.28;;;6.40;99.90;;;;;;5110778;27;20078;-79
2022/11/27 00:53:36;;;;;;;17.63;5.60;;;6.40;99.90;;;;;;5127720;27;20143;-79
2022/11/27 00:56:02;;;;;;;19.88;4.55;;;6.40;99.90;;;;;;5111027;27;20095;-79
2022/11/27 00:58:29;;;;;;;13.15;4.45;;;6.30;99.90;;;;;;5110521;27;20083;-80
2022/11/27 01:01:04;;;;;;;17.85;4.35;;;7.40;99.90;;;;;;5112000;27;20043;-80
2022/11/27 01:03:31;;;;;;;14.82;4.63;;;6.30;99.90;;;;;;5111142;27;20416;-79
2022/11/27 01:06:02;;;;;;;15.75;4.45;;;5.50;99.90;;;;;;5128523;27;20447;-80
2022/11/27 01:08:27;;;;;;;21.20;4.75;;;7.30;99.90;;;;;;5128171;27;20074;-80
2022/11/27 01:10:56;;;;;;;17.10;4.65;;;6.30;99.90;;;;;;5127410;27;20105;-80
2022/11/27 01:13:23;;;;;;;16.75;4.75;;;6.30;99.90;;;;;;5111516;27;20408;-80
2022/11/27 01:16:10;;;;;;;19.55;5.20;;;6.30;99.90;;;;;;5110063;27;20138;-80
2022/11/27 01:18:38;;;;;;;20.40;5.10;;;7.00;99.90;;;;;;5128261;27;20046;-79
2022/11/27 01:21:04;;;;;;;16.13;4.88;;;6.20;99.90;;;;;;5127726;27;20484;-79
2022/11/27 01:23:30;;;;;;;19.00;5.40;;;6.20;99.90;;;;;;5127701;27;20057;-80
2022/11/27 01:25:58;;;;;;;11.38;4.28;;;6.30;99.90;;;;;;5128114;27;20079;-80
2022/11/27 01:28:24;;;;;;;28.65;5.28;;;6.20;99.90;;;;;;5126407;27;20130;-80
2022/11/27 01:30:50;;;;;;;18.98;4.72;;;6.20;99.90;;;;;;5111150;27;20117;-79
2022/11/27 01:33:17;;;;;;;15.95;4.75;;;6.20;99.90;;;;;;5109929;27;20095;-80
2022/11/27 01:35:42;;;;;;;16.85;5.70;;;6.20;99.90;;;;;;5127988;27;20053;-80
2022/11/27 01:38:08;;;;;;;23.95;5.50;;;6.20;99.90;;;;;;5106722;28;20050;-80
2022/11/27 01:40:34;;;;;;;18.02;4.38;;;6.20;99.90;;;;;;5123965;28;20535;-79
2022/11/27 01:43:00;;;;;;;16.63;4.90;;;6.20;99.90;;;;;;5124123;28;20039;-80
2022/11/27 01:45:25;;;;;;;15.57;4.45;;;6.20;99.90;;;;;;5123301;28;20043;-79
2022/11/27 01:48:00;;;;;;;17.25;4.93;;;6.20;99.90;;;;;;5124289;28;20324;-79
2022/11/27 01:50:36;;;;;;;16.60;4.90;;;6.20;99.90;;;;;;5106502;28;20076;-79
2022/11/27 01:53:09;;;;;;;14.45;4.45;;;6.20;99.90;;;;;;5124427;28;20035;-79
2022/11/27 01:55:49;;;;;;;16.90;4.22;;;6.20;99.90;;;;;;5123756;28;20043;-79
2022/11/27 01:58:22;;;;;;;17.13;4.72;;;6.20;99.90;;;;;;5123833;28;20389;-80
2022/11/27 02:00:48;;;;;;;;;;;6.20;99.90;;;;;;5125819;28;20367;-79
2022/11/27 02:03:15;;;;;;;17.95;3.78;;;6.20;99.90;;;;;;5123268;28;19923;-80
2022/11/27 02:05:41;;;;;;;17.42;4.47;;;6.10;99.90;;;;;;5124877;28;20434;-80
2022/11/27 02:08:10;;;;;;;18.77;5.00;;;6.20;99.90;;;;;;5123884;28;20062;-80
2022/11/27 02:10:51;;;;;;;15.88;4.70;;;6.10;99.90;;;;;;5123680;28;20050;-80
2022/11/27 02:13:25;;;;;;;9.90;4.47;;;6.10;99.90;;;;;;5124083;28;20043;-80
2022/11/27 02:16:13;;;;;;;18.27;4.18;;;6.10;99.90;;;;;;5105898;28;20043;-80
2022/11/27 02:19:22;;;;;;;19.10;5.15;;;6.10;99.90;;;;;;5124256;28;20082;-80
2022/11/27 02:22:14;;;;;;;18.30;4.75;;;6.10;99.90;;;;;;5097080;28;20051;-80
2022/11/27 02:25:25;;;;;;;21.15;5.05;;;6.10;99.90;;;;;;5105999;28;20071;-80
2022/11/27 02:28:09;;;;;;;14.38;4.53;;;6.10;99.90;;;;;;5081896;28;20059;-80
2022/11/27 02:30:42;;;;;;;23.70;5.68;;;6.10;99.90;;;;;;5124353;28;20069;-80
2022/11/27 02:33:11;;;;;;;14.02;4.00;;;6.10;99.90;;;;;;5123237;28;20047;-80
2022/11/27 02:35:43;;;;;;;12.25;4.63;;;7.10;99.90;;;;;;5124456;28;20051;-80
2022/11/27 02:38:22;;;;;;;19.23;4.20;;;6.10;99.90;;;;;;5106534;28;20390;-80
2022/11/27 02:40:56;;;;;;;14.43;4.57;;;6.20;99.90;;;;;;5107171;27;20047;-80
2022/11/27 02:43:45;;;;;;;16.95;4.78;;;6.10;99.90;;;;;;5110821;27;20572;-80
2022/11/27 02:46:13;;;;;;;13.07;4.55;;;6.30;99.90;;;;;;5126898;27;20078;-80
2022/11/27 02:48:51;;;;;;;16.58;4.40;;;6.20;99.90;;;;;;5110607;27;20042;-80
2022/11/27 02:51:30;;;;;;;16.38;4.68;;;6.20;99.90;;;;;;5109713;27;20118;-80
2022/11/27 02:53:59;;;;;;;18.67;4.43;;;6.30;99.90;;;;;;5109413;27;20039;-81
2022/11/27 02:56:27;;;;;;;14.43;5.28;;;6.30;99.90;;;;;;5127441;27;20087;-80
2022/11/27 02:58:55;;;;;;;18.20;4.07;;;6.30;99.90;;;;;;5109739;27;20389;-80
2022/11/27 03:01:23;;;;;;;17.17;4.70;;;6.30;99.90;;;;;;5127840;27;20394;-80
2022/11/27 03:03:54;;;;;;;12.95;4.30;;;6.50;99.90;;;;;;5126650;27;20566;-80
2022/11/27 03:06:39;;;;;;;16.33;4.25;;;6.90;99.90;;;;;;5126931;27;20043;-80
2022/11/27 03:09:13;;;;;;;14.02;3.65;;;6.40;99.90;;;;;;5110704;27;20047;-79
2022/11/27 03:11:40;;;;;;;12.23;4.13;;;7.30;99.90;;;;;;5126388;27;20047;-80
2022/11/27 03:14:07;;;;;;;12.30;4.90;;;6.90;99.90;;;;;;5127651;27;20047;-80
2022/11/27 03:16:53;;;;;;;15.90;4.55;;;7.10;99.90;;;;;;5108835;27;20043;-79
2022/11/27 03:19:27;;;;;;;9.80;3.70;;;6.50;99.90;;;;;;5109488;27;20503;-79
2022/11/27 03:21:57;;;;;;;15.18;4.28;;;6.50;99.90;;;;;;5109900;27;20050;-80
2022/11/27 03:24:23;;;;;;;13.07;4.45;;;6.50;99.90;;;;;;5126300;27;20364;-80
2022/11/27 03:26:51;;;;;;;17.65;3.78;;;6.50;99.90;;;;;;5126997;27;20126;-80
2022/11/27 03:29:25;;;;;;;15.30;4.30;;;6.50;99.90;;;;;;5092005;27;20058;-80
2022/11/27 03:31:50;;;;;;;14.85;3.85;;;7.50;99.90;;;;;;5126850;27;20054;-80
2022/11/27 03:34:17;;;;;;;16.20;4.18;;;6.50;99.90;;;;;;5109335;27;20047;-80
2022/11/27 03:36:43;;;;;;;13.88;4.93;;;6.50;99.90;;;;;;5125674;27;20092;-80
2022/11/27 03:39:09;;;;;;;14.88;4.05;;;7.40;99.90;;;;;;5109196;27;20059;-80
2022/11/27 03:41:44;;;;;;;14.60;4.15;;;6.50;99.90;;;;;;5125293;27;20047;-80
2022/11/27 03:44:19;;;;;;;9.35;3.67;;;6.70;99.90;;;;;;5109504;27;20054;-80
2022/11/27 03:47:17;;;;;;;18.48;3.78;;;6.60;99.90;;;;;;5125653;27;20047;-80
2022/11/27 03:50:07;;;;;;;18.23;4.22;;;6.60;99.90;;;;;;5103699;27;20541;-80
2022/11/27 03:52:57;;;;;;;17.58;4.05;;;6.60;99.90;;;;;;5126549;27;20130;-80
2022/11/27 03:55:41;;;;;;;15.90;4.78;;;6.60;99.90;;;;;;5125734;27;20406;-80
2022/11/27 03:58:35;;;;;;;13.00;3.83;;;6.60;99.90;;;;;;5125925;27;20073;-80
2022/11/27 04:01:03;;;;;;;10.23;3.20;;;7.30;99.90;;;;;;5123127;27;20202;-80
2022/11/27 04:03:29;;;;;;;12.00;3.83;;;6.60;99.90;;;;;;5125031;27;20047;-80
2022/11/27 04:05:56;;;;;;;12.40;3.58;;;6.60;99.90;;;;;;5126320;27;20035;-80
2022/11/27 04:08:22;;;;;;;15.52;3.85;;;6.60;99.90;;;;;;5108387;27;20519;-80
2022/11/27 04:10:48;;;;;;;8.80;3.83;;;6.60;99.90;;;;;;5125477;27;20444;-80
2022/11/27 04:13:14;;;;;;;11.82;3.17;;;6.50;99.90;;;;;;5125544;27;20146;-80
2022/11/27 04:15:40;;;;;;;13.07;4.50;;;6.50;99.90;;;;;;5107731;27;20078;-80
2022/11/27 04:18:06;;;;;;;16.20;4.40;;;6.50;99.90;;;;;;5108972;27;20109;-80
2022/11/27 04:20:32;;;;;;;13.02;3.47;;;7.20;99.90;;;;;;5124571;27;20035;-80
2022/11/27 04:22:57;;;;;;;17.67;3.80;;;6.50;99.90;;;;;;5125739;27;20047;-80
2022/11/27 04:25:23;;;;;;;10.43;2.97;;;6.50;99.90;;;;;;5090709;27;20051;-80
2022/11/27 04:27:50;;;;;;;19.02;4.03;;;6.50;99.90;;;;;;5125270;27;20501;-80
2022/11/27 04:30:16;;;;;;;13.35;3.80;;;6.50;99.90;;;;;;5107886;27;20047;-80
2022/11/27 04:32:42;;;;;;;10.32;3.55;;;6.50;99.90;;;;;;5090545;27;20540;-80
2022/11/27 04:35:08;;;;;;;9.20;3.38;;;6.50;99.90;;;;;;5108888;27;20043;-80
2022/11/27 04:37:34;;;;;;;13.80;3.53;;;6.50;99.90;;;;;;5123999;27;20042;-80
2022/11/27 04:40:00;;;;;;;12.23;3.50;;;6.80;99.90;;;;;;5108510;27;20551;-81
2022/11/27 04:42:26;;;;;;;19.25;5.00;;;6.50;99.90;;;;;;5107173;27;20082;-80
2022/11/27 04:44:52;;;;;;;13.60;3.65;;;6.40;99.90;;;;;;5125128;27;20078;-80
2022/11/27 04:47:18;;;;;;;10.50;3.63;;;6.40;99.90;;;;;;5107788;27;20092;-80
2022/11/27 04:49:43;;;;;;;9.65;3.70;;;6.50;99.90;;;;;;5124504;27;20188;-80
2022/11/27 04:52:12;;;;;;;14.48;3.47;;;7.50;99.90;;;;;;5091268;27;20200;-80
2022/11/27 04:54:38;;;;;;;14.38;3.63;;;6.00;99.90;;;;;;5123909;27;20082;-80
2022/11/27 04:57:04;;;;;;;16.00;3.72;;;6.40;99.90;;;;;;5125436;27;20486;-80
2022/11/27 04:59:30;;;;;;;14.57;3.40;;;6.40;99.90;;;;;;5106826;27;20078;-80
2022/11/27 05:01:55;;;;;;;16.75;3.65;;;6.60;99.90;;;;;;5124991;27;20121;-80
2022/11/27 05:04:21;;;;;;;14.45;4.05;;;6.40;99.90;;;;;;5106797;27;20035;-80
2022/11/27 05:06:47;;;;;;;10.75;3.30;;;6.30;99.90;;;;;;5124394;27;20151;-80
2022/11/27 05:09:13;;;;;;;14.02;3.55;;;6.30;99.90;;;;;;5107796;27;20039;-80
2022/11/27 05:11:38;;;;;;;12.60;3.22;;;6.30;99.90;;;;;;5106942;27;20638;-80
2022/11/27 05:14:21;;;;;;;10.93;3.42;;;6.30;99.90;;;;;;5108754;27;20059;-80
2022/11/27 05:16:55;;;;;;;6.50;2.30;;;7.20;99.90;;;;;;5092312;27;20097;-80
2022/11/27 05:19:22;;;;;;;12.57;3.15;;;6.20;99.90;;;;;;5124876;27;20510;-80
2022/11/27 05:21:49;;;;;;;11.23;3.65;;;6.20;99.90;;;;;;5107586;27;20050;-81
2022/11/27 05:24:16;;;;;;;17.67;3.92;;;6.20;99.90;;;;;;5106786;27;20043;-81
2022/11/27 05:26:41;;;;;;;13.15;3.28;;;6.20;99.90;;;;;;5125062;27;20093;-81
2022/11/27 05:29:08;;;;;;;13.50;4.10;;;6.40;99.90;;;;;;5123247;27;20075;-80
2022/11/27 05:31:35;;;;;;;11.80;3.50;;;6.10;99.90;;;;;;5107918;28;20046;-81
2022/11/27 05:34:01;;;;;;;14.13;3.03;;;6.10;99.90;;;;;;5123830;27;20397;-81
2022/11/27 05:36:30;;;;;;;11.68;4.20;;;6.10;99.90;;;;;;5090676;28;20077;-80
2022/11/27 05:38:56;;;;;;;10.88;2.88;;;6.10;99.90;;;;;;5124268;28;20467;-81
2022/11/27 05:41:22;;;;;;;15.57;3.85;;;6.00;99.90;;;;;;5106529;28;20043;-81
2022/11/27 05:43:47;;;;;;;8.23;2.63;;;6.70;99.90;;;;;;5090616;28;20115;-80
2022/11/27 05:46:16;;;;;;;12.13;4.43;;;6.00;99.90;;;;;;5123154;28;20043;-80
2022/11/27 05:48:42;;;;;;;9.80;3.63;;;6.00;99.90;;;;;;5107579;28;20123;-80
2022/11/27 05:51:08;;;;;;;13.95;3.13;;;5.90;99.90;;;;;;5089499;28;20063;-81
2022/11/27 05:53:34;;;;;;;10.85;3.08;;;5.90;99.90;;;;;;5090386;28;20051;-81
2022/11/27 05:56:05;;;;;;;11.23;3.47;;;5.90;99.90;;;;;;5123637;28;20585;-81
2022/11/27 05:58:31;;;;;;;14.10;3.03;;;5.90;99.90;;;;;;5106236;28;20043;-80
2022/11/27 06:00:57;;;;;;;12.70;3.17;;;5.90;99.90;;;;;;5107794;28;20119;-81
2022/11/27 06:03:23;;;;;;;15.32;3.20;;;5.90;99.90;;;;;;5123463;28;20553;-81
2022/11/27 06:05:49;;;;;;;8.25;3.67;;;6.50;99.90;;;;;;5124833;28;20043;-81
2022/11/27 06:08:15;;;;;;;10.63;3.20;;;6.70;99.90;;;;;;5088908;28;20039;-80
2022/11/27 06:10:40;;;;;;;14.55;2.88;;;6.90;99.90;;;;;;5090123;28;20039;-80
2022/11/27 06:13:06;;;;;;;8.98;2.30;;;6.00;99.90;;;;;;5106336;28;20035;-80
2022/11/27 06:15:32;;;;;;;8.93;2.55;;;6.00;99.90;;;;;;5091249;27;20039;-82
2022/11/27 06:17:57;;;;;;;11.98;2.63;;;6.00;99.90;;;;;;5128752;27;20114;-80
2022/11/27 06:20:23;;;;;;;7.97;2.60;;;6.70;99.90;;;;;;5127112;27;20559;-80
2022/11/27 06:22:49;;;;;;;11.43;3.00;;;6.00;99.90;;;;;;5111806;27;20051;-80
2022/11/27 06:25:15;;;;;;;11.30;2.47;;;6.90;99.90;;;;;;5127034;27;20032;-81
2022/11/27 06:27:41;;;;;;;12.63;2.75;;;6.00;99.90;;;;;;5128091;27;20039;-80
2022/11/27 06:30:07;;;;;;;8.23;3.95;;;6.10;99.90;;;;;;5110259;27;20086;-81
2022/11/27 06:32:33;;;;;;;17.80;3.53;;;6.10;99.90;;;;;;5093629;27;20027;-81
2022/11/27 06:34:58;;;;;;;6.75;2.40;;;7.00;99.90;;;;;;5128033;27;20050;-80
2022/11/27 06:37:24;;;;;;;16.35;3.28;;;6.10;99.90;;;;;;5126627;27;20069;-81
2022/11/27 06:39:50;;;;;;;13.45;2.70;;;6.10;99.90;;;;;;5110984;27;20055;-80
2022/11/27 06:42:16;;;;;;;15.18;2.40;;;6.10;99.90;;;;;;5109137;27;20135;-80
2022/11/27 06:44:41;;;;;;;13.15;2.80;;;6.10;99.90;;;;;;5110712;27;20082;-81
2022/11/27 06:47:07;;;;;;;11.95;2.72;;;6.10;99.90;;;;;;5110294;27;20042;-81
2022/11/27 06:49:33;;;;;;;8.48;2.63;;;6.70;99.90;;;;;;5110246;27;20529;-81
2022/11/27 06:51:59;;;;;;;8.30;2.33;;;6.20;99.90;;;;;;5110175;27;20046;-81
2022/11/27 06:54:25;;;;;;;9.80;4.43;;;6.20;99.90;;;;;;5109748;27;20039;-80
2022/11/27 06:56:51;;;;;;;7.03;2.47;;;6.20;99.90;;;;;;5093841;27;20579;-81
2022/11/27 06:59:17;;;;;;;11.30;2.90;;;6.20;99.90;;;;;;5092129;27;20089;-81
2022/11/27 07:01:43;;;;;;;9.40;2.75;;;6.20;99.90;;;;;;5127345;27;20130;-80
2022/11/27 07:04:11;;;;;;;5.57;2.28;;;6.90;99.90;;;;;;5092324;27;20127;-80
2022/11/27 07:06:36;;;;;;;9.98;2.65;;;6.20;99.90;;;;;;5127233;27;20044;-81
2022/11/27 07:09:03;;;;;;;8.32;2.22;;;6.20;99.90;;;;;;5092698;27;20889;-81
2022/11/27 07:11:30;;;;;;;8.88;2.67;;;6.20;99.90;;;;;;5125930;27;20516;-81
2022/11/27 07:13:57;;;;;;;9.40;3.03;;;6.20;99.90;;;;;;5093514;27;20130;-80
2022/11/27 07:16:23;;;;;;;11.68;2.58;;;6.60;99.90;;;;;;5109073;27;20566;-80
2022/11/27 07:18:52;;;;;;;10.43;2.45;;;6.20;99.90;;;;;;5127183;27;20134;-80
2022/11/27 07:21:18;;;;;;;10.77;2.40;;;6.20;99.90;;;;;;5126257;27;20371;-81
2022/11/27 07:23:44;;;;;;;9.02;3.35;;;6.20;99.90;;;;;;5126669;27;20104;-81
2022/11/27 07:26:12;;;;;;;9.52;3.30;;;6.20;99.90;;;;;;5109418;27;20082;-80
2022/11/27 07:28:38;;;;;;;7.65;2.33;;;6.20;99.90;;;;;;5108189;27;20071;-81
2022/11/27 07:31:04;;;;;;;8.30;2.75;;;6.20;99.90;;;;;;5093126;27;20078;-80
2022/11/27 07:33:31;;;;;;;9.68;2.83;;;6.20;99.90;;;;;;5125325;27;20044;-80
2022/11/27 07:36:04;;;;;;;11.45;2.58;;;6.20;99.90;;;;;;5110162;27;20514;-79
2022/11/27 07:38:29;;;;;;;11.88;3.05;;;6.40;99.90;;;;;;5125162;27;20098;-79
2022/11/27 07:41:00;;;;;;;11.02;3.28;;;6.20;99.90;;;;;;5092682;27;20078;-81
2022/11/27 07:43:26;;;;;;;14.82;3.10;;;6.20;99.90;;;;;;5127050;27;20440;-79
2022/11/27 07:45:52;;;;;;;7.97;3.30;;;6.20;99.90;;;;;;5107884;27;20099;-81
2022/11/27 07:48:18;;;;;;;8.45;3.05;;;6.20;99.90;;;;;;5110284;27;20078;-80
2022/11/27 07:50:44;;;;;;;10.73;2.97;;;6.20;99.90;;;;;;5091065;27;20039;-80
2022/11/27 07:53:09;;;;;;;5.13;2.40;;;6.20;99.90;;;;;;5092528;27;20459;-80
2022/11/27 07:55:39;;;;;;;8.18;2.78;;;7.20;99.90;;;;;;5108049;27;20282;-80
2022/11/27 07:58:05;;;;;;;5.95;2.53;;;7.00;99.90;;;;;;5109150;27;20062;-81
2022/11/27 08:00:31;;;;;;;10.07;3.03;;;6.20;99.90;;;;;;5126087;27;20176;-81
2022/11/27 08:02:58;;;;;;;10.27;3.55;;;6.30;99.90;;;;;;5124919;27;20126;-81
2022/11/27 08:05:24;;;;;;;8.60;3.50;;;6.50;99.90;;;;;;5126955;27;20376;-81
2022/11/27 08:07:49;;;;;;;8.88;3.67;;;6.40;99.90;;;;;;5124571;27;20053;-81
2022/11/27 08:10:15;;;;;;;5.93;3.60;;;6.40;99.90;;;;;;5109287;27;20343;-80
2022/11/27 08:12:41;;;;;;;14.55;3.67;;;6.40;99.90;;;;;;5124537;27;20482;-81
2022/11/27 08:15:07;;;;;;;9.57;2.70;;;6.40;99.90;;;;;;5126261;27;20050;-80
2022/11/27 08:17:33;;;;;;;11.13;3.00;;;6.50;99.90;;;;;;5108117;27;20043;-80
2022/11/27 08:19:58;;;;;;;7.03;2.60;;;6.50;99.90;;;;;;5107795;27;20040;-81
2022/11/27 08:22:24;;;;;;;9.93;3.63;;;6.50;99.90;;;;;;5092786;27;20035;-79
2022/11/27 08:24:50;;;;;;;7.40;3.15;;;6.50;99.90;;;;;;5125071;27;20232;-80
2022/11/27 08:27:16;;;;;;;9.38;3.33;;;6.70;99.90;;;;;;5126367;27;20046;-80
2022/11/27 08:29:42;;;;;;;7.63;3.67;;;7.50;99.90;;;;;;5090411;27;20375;-80
2022/11/27 08:32:08;;;;;;;8.93;3.17;;;6.50;99.90;;;;;;5109110;27;20070;-80
2022/11/27 08:34:34;;;;;;;14.10;4.35;;;6.50;99.90;;;;;;5108399;27;20126;-80
2022/11/27 08:37:00;;;;;;;11.30;3.88;;;6.40;99.90;;;;;;5091148;27;20047;-80
2022/11/27 08:39:26;;;;;;;7.15;3.25;;;6.70;99.90;;;;;;5090596;27;20599;-81
2022/11/27 08:41:52;;;;;;;9.02;3.55;;;6.40;99.90;;;;;;5124533;27;20092;-82
2022/11/27 08:44:18;;;;;;;10.35;3.88;;;6.40;99.90;;;;;;5108491;27;20035;-80
2022/11/27 08:46:44;;;;;;;19.02;4.55;;;6.40;99.90;;;;;;5106658;27;20054;-81
2022/11/27 08:49:09;;;;;;;8.45;3.50;;;6.40;99.90;;;;;;5108709;27;20047;-81
2022/11/27 08:51:35;;;;;;;11.85;3.83;;;7.20;99.90;;;;;;5090755;27;20081;-81
2022/11/27 08:54:01;;;;;;;10.05;3.10;;;6.40;99.90;;;;;;5125482;27;20171;-81
2022/11/27 08:56:27;;;;;;;11.32;3.72;;;6.40;99.90;;;;;;5125614;27;20490;-82
2022/11/27 08:58:53;;;;;;;10.70;3.47;;;6.50;99.90;;;;;;5124725;27;20050;-82
2022/11/27 09:01:21;;;;;;;9.05;3.42;;;7.10;99.90;;;;;;5126810;27;20391;-83
2022/11/27 09:03:47;;;;;;;4.85;2.78;;;6.50;99.90;;;;;;5107209;27;20031;-82
2022/11/27 09:06:17;;;;;;;16.30;3.75;;;6.50;99.90;;;;;;5108389;27;20037;-82
2022/11/27 09:08:44;;;;;;;10.57;4.18;;;6.50;99.90;;;;;;5107569;27;20339;-82
2022/11/27 09:11:12;;;;;;;9.80;4.05;;;6.50;99.90;;;;;;5107701;27;20068;-82
2022/11/27 09:13:39;;;;;;;7.05;3.65;;;6.80;99.90;;;;;;5108370;27;20494;-82
2022/11/27 09:16:07;;;;;;;11.70;3.92;;;6.50;99.90;;;;;;5106632;27;20536;-82
2022/11/27 09:18:33;;;;;;;11.43;3.30;;;6.50;99.90;;;;;;5126256;27;20495;-82
2022/11/27 09:21:04;;;;;;;10.68;3.95;;;6.60;99.90;;;;;;5123241;27;20078;-82
2022/11/27 09:23:30;;;;;;;8.05;3.88;;;6.60;99.90;;;;;;5124504;27;20059;-81
2022/11/27 09:26:01;;;;;;;10.82;3.95;;;6.70;99.90;;;;;;5124703;27;20035;-82
2022/11/27 09:28:28;;;;;;;7.85;3.85;;;6.60;99.90;;;;;;5107417;27;20071;-82
2022/11/27 09:30:55;;;;;;;7.30;4.30;;;6.60;99.90;;;;;;5107870;28;20084;-82
2022/11/27 09:33:22;;;;;;;11.07;3.60;;;6.60;99.90;;;;;;5106546;28;20096;-82
2022/11/27 09:35:48;;;;;;;11.55;4.68;;;6.60;99.90;;;;;;5125152;27;20103;-82
2022/11/27 09:38:14;;;;;;;8.20;3.95;;;6.80;99.90;;;;;;5126071;27;20050;-82
2022/11/27 09:40:51;;;;;;;10.60;4.72;;;6.50;99.90;;;;;;5127909;27;20137;-81
2022/11/27 09:43:19;;;;;;;22.13;5.57;;;6.60;99.90;;;;;;5127844;27;20047;-82
2022/11/27 09:45:53;;;;;;;8.23;3.78;;;6.50;99.90;;;;;;5109862;27;20103;-82
2022/11/27 09:48:33;;;;;;;12.75;4.47;;;6.50;99.90;;;;;;5111362;27;20073;-81
2022/11/27 09:51:04;;;;;;;9.00;4.63;;;6.50;99.90;;;;;;5129535;27;20255;-82
2022/11/27 09:53:47;;;;;;;12.82;4.50;;;6.50;99.90;;;;;;5115884;27;20050;-82
2022/11/27 09:56:15;;;;;;;;;;;6.50;99.90;;;;;;5132329;27;20050;-82
2022/11/27 09:58:50;;;;;;;10.75;4.13;;;6.50;99.90;;;;;;5113926;27;19918;-82
2022/11/27 10:01:28;;;;;;;9.60;4.55;;;6.50;99.90;;;;;;5132695;27;20121;-82
2022/11/27 10:03:54;;;;;;;10.85;4.78;;;7.00;99.90;;;;;;5130517;27;20138;-82
2022/11/27 10:06:31;;;;;;;8.02;3.72;;;6.70;99.90;;;;;;5115473;27;20133;-81
2022/11/27 10:09:22;;;;;;;10.80;4.47;;;6.50;99.90;;;;;;5114847;27;20554;-82
2022/11/27 10:12:11;;;;;;;12.93;4.70;;;6.50;99.90;;;;;;5149550;27;20045;-82
2022/11/27 10:14:40;;;;;;;11.73;4.32;;;6.50;99.90;;;;;;5133094;27;20107;-81
2022/11/27 10:17:19;;;;;;;8.77;4.82;;;6.50;99.90;;;;;;5130829;27;20298;-81
2022/11/27 10:20:07;;;;;;;12.98;4.82;;;7.10;99.90;;;;;;5149845;27;20636;-81
2022/11/27 10:22:47;;;;;;;10.95;5.93;;;6.50;99.90;;;;;;5151432;27;20049;-81
2022/11/27 10:25:19;;;;;;;13.32;5.35;;;6.50;99.90;;;;;;5113002;27;20046;-81
2022/11/27 10:28:22;;;;;;;12.48;4.35;;;6.50;99.90;;;;;;5131929;27;20047;-81
2022/11/27 10:31:28;;;;;;;15.07;4.72;;;6.50;99.90;;;;;;5131298;27;20059;-81
2022/11/27 10:33:58;;;;;;;14.60;4.80;;;6.50;99.90;;;;;;5112669;27;20447;-82
2022/11/27 10:36:32;;;;;;;12.50;4.82;;;6.40;99.90;;;;;;5149860;27;20035;-82
2022/11/27 10:39:00;;;;;;;13.15;5.47;;;6.50;99.90;;;;;;5149516;27;20058;-82
2022/11/27 10:41:33;;;;;;;13.98;5.22;;;6.50;99.90;;;;;;5149073;27;20082;-81
2022/11/27 10:44:11;;;;;;;12.02;4.97;;;7.10;99.90;;;;;;5151414;27;20385;-81
2022/11/27 10:46:38;;;;;;;14.95;5.93;;;6.60;99.90;;;;;;5148655;27;20058;-82
2022/11/27 10:49:04;;;;;;;11.68;5.07;;;6.50;99.90;;;;;;5149987;27;20042;-82
2022/11/27 10:51:36;;;;;;;8.35;4.18;;;6.50;99.90;;;;;;5130257;27;20046;-81
2022/11/27 10:54:06;;;;;;;10.38;4.65;;;6.70;99.90;;;;;;5149387;27;20046;-80
2022/11/27 10:57:01;;;;;;;12.90;5.13;;;6.50;99.90;;;;;;5150061;27;20470;-80
2022/11/27 10:59:34;;;;;;;13.60;4.90;;;6.50;99.90;;;;;;5129424;27;20050;-81
2022/11/27 11:02:00;;;;;;;9.47;5.00;;;6.50;99.90;;;;;;5129596;27;20234;-84
2022/11/27 11:04:29;;;;;;;14.10;4.95;;;6.50;99.90;;;;;;5148786;27;20280;-80
2022/11/27 11:06:55;;;;;;;15.75;5.63;;;7.50;99.90;;;;;;5149075;27;20031;-81
2022/11/27 11:09:23;;;;;;;11.00;5.00;;;7.60;99.90;;;;;;5131007;27;20133;-80
2022/11/27 11:11:49;;;;;;;15.00;6.03;;;6.50;99.90;;;;;;5148696;27;20049;-80
2022/11/27 11:14:15;;;;;;;15.23;4.80;;;7.00;99.90;;;;;;5150034;27;20067;-79
2022/11/27 11:16:43;;;;;;;12.07;5.13;;;6.50;99.90;;;;;;5148320;27;20117;-80
2022/11/27 11:19:29;;;;;;;9.48;5.10;;;6.60;99.90;;;;;;5130685;27;20118;-80
2022/11/27 11:21:55;;;;;;;10.40;4.95;;;6.60;99.90;;;;;;5149281;27;20062;-80
2022/11/27 11:24:26;;;;;;;14.18;5.03;;;7.70;99.90;;;;;;5148711;27;20034;-80
2022/11/27 11:26:56;;;;;;;13.95;5.32;;;6.60;99.90;;;;;;5149914;27;20086;-81
2022/11/27 11:29:39;;;;;;;14.95;4.75;;;6.60;99.90;;;;;;5147609;27;20099;-81
2022/11/27 11:32:19;;;;;;;11.77;4.68;;;6.50;99.90;;;;;;5149366;27;20091;-81
2022/11/27 11:35:10;;;;;;;12.93;4.78;;;6.60;99.90;;;;;;5129534;27;20125;-80
2022/11/27 11:37:40;;;;;;;9.82;4.63;;;6.60;99.90;;;;;;5116960;27;20105;-81
2022/11/27 11:40:12;;;;;;;11.40;5.50;;;6.60;99.90;;;;;;5130728;27;20493;-80
2022/11/27 11:42:56;;;;;;;9.35;5.03;;;6.60;99.90;;;;;;5129031;27;20057;-80
2022/11/27 11:45:22;;;;;;;14.93;4.50;;;6.60;99.90;;;;;;5130034;27;20047;-80
2022/11/27 11:47:54;;;;;;;19.17;5.38;;;7.10;99.90;;;;;;5130080;27;20295;-81
2022/11/27 11:50:28;;;;;;;14.50;3.72;;;6.60;99.90;;;;;;5112469;27;20053;-81
2022/11/27 11:53:16;;;;;;;9.85;4.50;;;6.60;99.90;;;;;;5130685;27;20046;-82
2022/11/27 11:55:51;;;;;;;15.88;5.18;;;6.60;99.90;;;;;;5111953;27;20401;-81
2022/11/27 11:58:36;;;;;;;10.98;5.38;;;6.60;99.90;;;;;;5129273;27;20074;-82
2022/11/27 12:01:55;;;;;;;11.30;5.15;;;6.70;99.90;;;;;;5113079;27;20099;-81
2022/11/27 12:05:18;;;;;;;11.60;4.93;;;6.60;99.90;;;;;;5087527;27;20054;-82
2022/11/27 12:07:55;;;;;;;14.05;5.22;;;6.60;99.90;;;;;;5010016;28;20052;-82
2022/11/27 12:10:30;;;;;;;11.80;4.97;;;6.60;99.90;;;;;;5027471;28;20607;-82
2022/11/27 12:13:21;;;;;;;10.98;5.20;;;6.90;99.90;;;;;;5088476;27;20104;-82
2022/11/27 12:16:06;;;;;;;9.27;5.20;;;6.60;99.90;;;;;;5115802;27;20082;-82
2022/11/27 12:18:46;;;;;;;15.85;5.32;;;6.60;99.90;;;;;;5112411;27;20035;-81
2022/11/27 12:21:15;;;;;;;15.65;5.55;;;6.60;99.90;;;;;;5146530;27;20141;-82
2022/11/27 12:23:58;;;;;;;12.25;6.70;;;7.20;99.90;;;;;;5129144;27;20049;-82
2022/11/27 12:26:40;;;;;;;12.27;5.40;;;6.60;99.90;;;;;;5129569;27;20393;-82
2022/11/27 12:29:40;;;;;;;12.73;5.63;;;6.60;99.90;;;;;;5128507;27;20362;-81
2022/11/27 12:32:13;;;;;;;14.50;5.47;;;6.70;99.90;;;;;;5129234;27;20043;-82
2022/11/27 12:34:57;;;;;;;9.90;5.03;;;6.80;99.90;;;;;;5128240;27;20042;-81
2022/11/27 12:37:39;;;;;;;12.48;4.95;;;6.70;99.90;;;;;;5128550;27;20127;-82
2022/11/27 12:40:39;;;;;;;9.77;4.85;;;6.70;99.90;;;;;;5129501;27;20055;-82
2022/11/27 12:43:27;;;;;;;8.65;5.00;;;6.70;99.90;;;;;;5111477;27;20116;-82
2022/11/27 12:46:05;;;;;;;17.55;5.88;;;6.70;99.90;;;;;;5128095;27;20114;-81
2022/11/27 12:48:38;;;;;;;11.95;5.07;;;6.80;99.90;;;;;;5129832;27;20057;-81
2022/11/27 12:51:28;;;;;;;13.52;5.25;;;7.40;99.90;;;;;;5127254;27;20086;-81
2022/11/27 12:53:53;;;;;;;11.70;5.40;;;6.80;99.90;;;;;;5113524;27;20532;-82
2022/11/27 12:56:32;;;;;;;13.52;5.05;;;6.80;99.90;;;;;;5111168;27;20079;-81
2022/11/27 12:59:32;;;;;;;9.35;4.97;;;6.80;99.90;;;;;;5128005;27;20394;-81
2022/11/27 13:02:07;;;;;;;12.02;4.90;;;6.80;99.90;;;;;;5129122;27;20047;-81
2022/11/27 13:04:53;;;;;;;14.50;5.75;;;6.80;99.90;;;;;;5110994;27;20038;-81
2022/11/27 13:07:27;;;;;;;18.08;5.18;;;6.90;99.90;;;;;;5127605;27;20126;-81
2022/11/27 13:10:36;;;;;;;11.63;5.05;;;7.30;99.90;;;;;;5129695;27;20573;-81
2022/11/27 13:13:27;;;;;;;8.80;5.25;;;6.70;99.90;;;;;;5084448;27;20105;-81